Ongar, United Kingdom
Current Conditions -  °F | °C
As of 10:20 AM on Friday 21 Nov 2014 (Local Time) from EGSS Reporting Station
Broken Clouds Broken Clouds  
Wind Chill: 40°   Ceiling: 1200
Heat Index: 46°   Visibility: 4mi
Dew Point: 45°   Wind: 14mph
Humidity: 93%   Direction: 110°ESE
Pressure: 30.09"   Gusts: NA
Location:  51.71°N, 0.24°E
Report Text: EGSS 211020Z 11012KT 7000 BKN012 08/07 Q1019
Loading
Personal Weather Stations






























Interactive Weather Map New forecast layout! Learn more

10-Day Weather Forecast

Advertisements
Track Severe Weather on mobile